sensor_id;sensor_type;location;lat;lon;timestamp;temperature;humidity
39493;DHT22;25176;51.060;3.720;2023-03-01T00:01:25;4.20;75.10
39493;DHT22;25176;51.060;3.720;2023-03-01T00:03:52;4.20;75.30
39493;DHT22;25176;51.060;3.720;2023-03-01T00:06:18;4.20;75.20
39493;DHT22;25176;51.060;3.720;2023-03-01T00:08:44;4.10;76.00
39493;DHT22;25176;51.060;3.720;2023-03-01T00:11:13;4.10;76.50
39493;DHT22;25176;51.060;3.720;2023-03-01T00:13:41;4.10;76.70
39493;DHT22;25176;51.060;3.720;2023-03-01T00:16:09;4.20;76.70
39493;DHT22;25176;51.060;3.720;2023-03-01T00:18:35;4.20;76.80
39493;DHT22;25176;51.060;3.720;2023-03-01T00:21:01;4.30;76.70
39493;DHT22;25176;51.060;3.720;2023-03-01T00:23:26;4.30;76.40
39493;DHT22;25176;51.060;3.720;2023-03-01T00:25:52;4.30;76.80
39493;DHT22;25176;51.060;3.720;2023-03-01T00:28:18;4.30;76.70
39493;DHT22;25176;51.060;3.720;2023-03-01T00:30:45;4.20;76.50
39493;DHT22;25176;51.060;3.720;2023-03-01T00:33:10;4.20;76.80
39493;DHT22;25176;51.060;3.720;2023-03-01T00:35:36;4.20;77.00
39493;DHT22;25176;51.060;3.720;2023-03-01T00:38:02;4.30;77.30
39493;DHT22;25176;51.060;3.720;2023-03-01T00:40:29;4.20;77.10
39493;DHT22;25176;51.060;3.720;2023-03-01T00:42:55;4.20;77.50
39493;DHT22;25176;51.060;3.720;2023-03-01T00:45:20;4.20;77.60
39493;DHT22;25176;51.060;3.720;2023-03-01T00:47:46;4.30;78.10
39493;DHT22;25176;51.060;3.720;2023-03-01T00:50:13;4.30;78.40
39493;DHT22;25176;51.060;3.720;2023-03-01T00:52:39;4.40;78.60
39493;DHT22;25176;51.060;3.720;2023-03-01T00:55:05;4.40;79.20
39493;DHT22;25176;51.060;3.720;2023-03-01T00:57:31;4.40;79.60
39493;DHT22;25176;51.060;3.720;2023-03-01T00:59:57;4.40;79.90
39493;DHT22;25176;51.060;3.720;2023-03-01T01:02:23;4.40;80.10
39493;DHT22;25176;51.060;3.720;2023-03-01T01:04:48;4.40;80.60
39493;DHT22;25176;51.060;3.720;2023-03-01T01:07:14;4.30;81.10
39493;DHT22;25176;51.060;3.720;2023-03-01T01:09:40;4.30;81.30
39493;DHT22;25176;51.060;3.720;2023-03-01T07:01:31;1.80;93.40
39493;DHT22;25176;51.060;3.720;2023-03-01T07:03:57;2.10;92.40
39493;DHT22;25176;51.060;3.720;2023-03-01T07:06:23;2.10;92.30
39493;DHT22;25176;51.060;3.720;2023-03-01T07:08:49;2.00;92.20
39493;DHT22;25176;51.060;3.720;2023-03-01T07:11:15;2.00;92.00
39493;DHT22;25176;51.060;3.720;2023-03-01T07:13:41;2.10;92.00
39493;DHT22;25176;51.060;3.720;2023-03-01T07:16:07;2.10;91.80
39493;DHT22;25176;51.060;3.720;2023-03-01T07:18:33;2.10;91.40
39493;DHT22;25176;51.060;3.720;2023-03-01T07:21:08;2.20;91.20
39493;DHT22;25176;51.060;3.720;2023-03-01T07:23:34;2.20;90.90
39493;DHT22;25176;51.060;3.720;2023-03-01T07:26:02;2.20;90.90
39493;DHT22;25176;51.060;3.720;2023-03-01T07:28:28;2.20;90.90
39493;DHT22;25176;51.060;3.720;2023-03-01T07:30:54;2.20;90.90
39493;DHT22;25176;51.060;3.720;2023-03-01T07:33:20;2.20;90.90
39493;DHT22;25176;51.060;3.720;2023-03-01T07:36:18;2.30;91.00
39493;DHT22;25176;51.060;3.720;2023-03-01T07:38:59;2.30;91.00
39493;DHT22;25176;51.060;3.720;2023-03-01T07:41:27;2.30;91.00
39493;DHT22;25176;51.060;3.720;2023-03-01T08:13:39;2.30;90.50
39493;DHT22;25176;51.060;3.720;2023-03-01T08:16:11;3.00;88.40
39493;DHT22;25176;51.060;3.720;2023-03-01T08:18:38;3.00;88.40
39493;DHT22;25176;51.060;3.720;2023-03-01T08:21:11;3.00;88.20
39493;DHT22;25176;51.060;3.720;2023-03-01T08:23:37;3.10;87.90
39493;DHT22;25176;51.060;3.720;2023-03-01T08:26:12;3.10;87.60
39493;DHT22;25176;51.060;3.720;2023-03-01T08:28:38;3.20;87.60
39493;DHT22;25176;51.060;3.720;2023-03-01T08:31:14;3.30;87.20
39493;DHT22;25176;51.060;3.720;2023-03-01T08:33:39;3.30;86.40
39493;DHT22;25176;51.060;3.720;2023-03-01T08:36:06;3.30;87.00
39493;DHT22;25176;51.060;3.720;2023-03-01T08:38:35;3.50;86.60
39493;DHT22;25176;51.060;3.720;2023-03-01T08:41:02;3.60;86.20
39493;DHT22;25176;51.060;3.720;2023-03-01T08:43:28;3.70;85.70
39493;DHT22;25176;51.060;3.720;2023-03-01T08:49:17;7.30;79.00
39493;DHT22;25176;51.060;3.720;2023-03-01T08:51:45;9.40;72.70
39493;DHT22;25176;51.060;3.720;2023-03-01T08:54:16;10.60;68.30
39493;DHT22;25176;51.060;3.720;2023-03-01T08:56:44;13.20;64.40
39493;DHT22;25176;51.060;3.720;2023-03-01T08:59:11;14.70;59.70
39493;DHT22;25176;51.060;3.720;2023-03-01T09:01:37;15.40;57.70
39493;DHT22;25176;51.060;3.720;2023-03-01T09:04:04;14.30;58.20
39493;DHT22;25176;51.060;3.720;2023-03-01T09:06:31;15.00;58.00
39493;DHT22;25176;51.060;3.720;2023-03-01T09:08:59;17.80;54.70
39493;DHT22;25176;51.060;3.720;2023-03-01T09:11:25;20.60;52.00
39493;DHT22;25176;51.060;3.720;2023-03-01T09:13:58;19.60;48.30
39493;DHT22;25176;51.060;3.720;2023-03-01T09:16:24;19.90;48.50
39493;DHT22;25176;51.060;3.720;2023-03-01T09:18:52;18.20;48.10
39493;DHT22;25176;51.060;3.720;2023-03-01T09:21:22;16.00;52.20
39493;DHT22;25176;51.060;3.720;2023-03-01T09:23:49;17.20;51.10
39493;DHT22;25176;51.060;3.720;2023-03-01T09:26:21;16.90;50.00
39493;DHT22;25176;51.060;3.720;2023-03-01T09:28:48;16.80;50.40
39493;DHT22;25176;51.060;3.720;2023-03-01T09:31:15;16.00;51.10
39493;DHT22;25176;51.060;3.720;2023-03-01T09:37:04;16.10;51.10
39493;DHT22;25176;51.060;3.720;2023-03-01T09:39:29;15.30;51.50
39493;DHT22;25176;51.060;3.720;2023-03-01T09:42:03;14.70;52.20
39493;DHT22;25176;51.060;3.720;2023-03-01T09:44:52;16.20;50.50
39493;DHT22;25176;51.060;3.720;2023-03-01T09:47:26;19.20;48.10
39493;DHT22;25176;51.060;3.720;2023-03-01T09:50:12;20.50;46.40
39493;DHT22;25176;51.060;3.720;2023-03-01T09:52:52;18.40;46.60
39493;DHT22;25176;51.060;3.720;2023-03-01T09:56:51;18.70;46.60
39493;DHT22;25176;51.060;3.720;2023-03-01T09:59:00;19.80;45.40
39493;DHT22;25176;51.060;3.720;2023-03-01T10:01:56;19.60;45.20
39493;DHT22;25176;51.060;3.720;2023-03-01T10:04:51;18.40;46.00
39493;DHT22;25176;51.060;3.720;2023-03-01T10:10:33;14.70;50.50
39493;DHT22;25176;51.060;3.720;2023-03-01T10:15:44;14.30;52.50
39493;DHT22;25176;51.060;3.720;2023-03-01T10:18:16;15.80;50.60
39493;DHT22;25176;51.060;3.720;2023-03-01T10:21:00;16.50;49.20
39493;DHT22;25176;51.060;3.720;2023-03-01T10:23:27;16.30;47.30
39493;DHT22;25176;51.060;3.720;2023-03-01T10:26:20;15.70;47.90
39493;DHT22;25176;51.060;3.720;2023-03-01T10:31:27;12.50;51.10
39493;DHT22;25176;51.060;3.720;2023-03-01T10:34:39;10.50;54.80
39493;DHT22;25176;51.060;3.720;2023-03-01T10:37:35;9.60;57.10
39493;DHT22;25176;51.060;3.720;2023-03-01T10:40:11;8.90;58.30
39493;DHT22;25176;51.060;3.720;2023-03-01T10:42:49;8.60;59.00
39493;DHT22;25176;51.060;3.720;2023-03-01T10:45:53;8.20;59.50
39493;DHT22;25176;51.060;3.720;2023-03-01T10:48:26;7.90;60.30
39493;DHT22;25176;51.060;3.720;2023-03-01T10:53:48;7.70;60.90
39493;DHT22;25176;51.060;3.720;2023-03-01T10:56:15;7.50;60.70
39493;DHT22;25176;51.060;3.720;2023-03-01T10:59:03;7.50;61.50
39493;DHT22;25176;51.060;3.720;2023-03-01T11:01:33;7.30;61.10
39493;DHT22;25176;51.060;3.720;2023-03-01T11:04:11;7.20;61.90
39493;DHT22;25176;51.060;3.720;2023-03-01T11:06:39;7.00;62.00
39493;DHT22;25176;51.060;3.720;2023-03-01T11:09:18;7.00;62.60
39493;DHT22;25176;51.060;3.720;2023-03-01T11:11:44;6.90;62.90
39493;DHT22;25176;51.060;3.720;2023-03-01T11:14:37;6.80;63.30
39493;DHT22;25176;51.060;3.720;2023-03-01T11:17:23;7.00;63.50
39493;DHT22;25176;51.060;3.720;2023-03-01T11:22:35;6.90;62.90
39493;DHT22;25176;51.060;3.720;2023-03-01T11:25:01;6.60;63.50
39493;DHT22;25176;51.060;3.720;2023-03-01T11:27:32;6.80;63.70
39493;DHT22;25176;51.060;3.720;2023-03-01T11:30:12;6.80;63.30
39493;DHT22;25176;51.060;3.720;2023-03-01T11:33:11;6.80;63.40
39493;DHT22;25176;51.060;3.720;2023-03-01T11:35:45;6.70;63.60
39493;DHT22;25176;51.060;3.720;2023-03-01T11:38:25;6.70;62.80
39493;DHT22;25176;51.060;3.720;2023-03-01T12:06:06;7.20;63.80
39493;DHT22;25176;51.060;3.720;2023-03-01T12:18:03;7.10;64.40
39493;DHT22;25176;51.060;3.720;2023-03-01T12:23:52;7.50;63.90
39493;DHT22;25176;51.060;3.720;2023-03-01T12:26:41;7.60;63.20
39493;DHT22;25176;51.060;3.720;2023-03-01T12:29:31;7.50;62.80
39493;DHT22;25176;51.060;3.720;2023-03-01T12:32:15;7.40;63.30
39493;DHT22;25176;51.060;3.720;2023-03-01T12:35:02;7.30;63.60
39493;DHT22;25176;51.060;3.720;2023-03-01T12:41:08;7.50;62.30
39493;DHT22;25176;51.060;3.720;2023-03-01T12:44:07;7.30;62.00
39493;DHT22;25176;51.060;3.720;2023-03-01T12:47:29;7.40;62.40
39493;DHT22;25176;51.060;3.720;2023-03-01T12:50:01;7.30;62.30
39493;DHT22;25176;51.060;3.720;2023-03-01T12:52:38;7.50;62.90
39493;DHT22;25176;51.060;3.720;2023-03-01T12:55:18;7.60;62.10
39493;DHT22;25176;51.060;3.720;2023-03-01T13:00:39;7.60;61.50
39493;DHT22;25176;51.060;3.720;2023-03-01T13:08:39;7.40;62.70
39493;DHT22;25176;51.060;3.720;2023-03-01T13:11:28;7.60;62.50
39493;DHT22;25176;51.060;3.720;2023-03-01T13:16:46;7.70;62.80
39493;DHT22;25176;51.060;3.720;2023-03-01T13:19:27;7.80;63.20
39493;DHT22;25176;51.060;3.720;2023-03-01T13:21:58;7.90;62.90
39493;DHT22;25176;51.060;3.720;2023-03-01T13:24:39;7.80;63.00
39493;DHT22;25176;51.060;3.720;2023-03-01T13:29:50;7.90;62.70
39493;DHT22;25176;51.060;3.720;2023-03-01T13:32:35;8.00;62.70
39493;DHT22;25176;51.060;3.720;2023-03-01T13:37:39;8.00;63.20
39493;DHT22;25176;51.060;3.720;2023-03-01T13:42:52;7.90;62.70
39493;DHT22;25176;51.060;3.720;2023-03-01T13:45:22;7.90;62.40
39493;DHT22;25176;51.060;3.720;2023-03-01T13:48:04;7.70;62.50
39493;DHT22;25176;51.060;3.720;2023-03-01T13:50:38;7.70;63.50
39493;DHT22;25176;51.060;3.720;2023-03-01T13:53:11;7.80;63.50
39493;DHT22;25176;51.060;3.720;2023-03-01T13:55:45;7.90;63.80
39493;DHT22;25176;51.060;3.720;2023-03-01T13:58:32;8.00;64.00
39493;DHT22;25176;51.060;3.720;2023-03-01T14:01:01;8.00;63.50
39493;DHT22;25176;51.060;3.720;2023-03-01T14:03:28;7.80;63.20
39493;DHT22;25176;51.060;3.720;2023-03-01T14:06:04;7.60;63.90
39493;DHT22;25176;51.060;3.720;2023-03-01T14:08:32;7.70;64.10
39493;DHT22;25176;51.060;3.720;2023-03-01T14:11:22;7.80;63.60
39493;DHT22;25176;51.060;3.720;2023-03-01T14:19:29;7.90;63.70
39493;DHT22;25176;51.060;3.720;2023-03-01T14:22:12;7.80;64.30
39493;DHT22;25176;51.060;3.720;2023-03-01T14:24:48;7.80;64.40
39493;DHT22;25176;51.060;3.720;2023-03-01T14:27:14;7.80;64.90
39493;DHT22;25176;51.060;3.720;2023-03-01T14:29:40;7.80;64.10
39493;DHT22;25176;51.060;3.720;2023-03-01T14:32:26;7.60;64.50
39493;DHT22;25176;51.060;3.720;2023-03-01T14:34:52;7.70;64.40
39493;DHT22;25176;51.060;3.720;2023-03-01T14:37:24;7.70;64.50
39493;DHT22;25176;51.060;3.720;2023-03-01T14:39:51;7.60;65.00
39493;DHT22;25176;51.060;3.720;2023-03-01T14:42:18;7.70;64.80
39493;DHT22;25176;51.060;3.720;2023-03-01T14:44:47;7.70;65.10
39493;DHT22;25176;51.060;3.720;2023-03-01T14:47:20;7.80;65.30
39493;DHT22;25176;51.060;3.720;2023-03-01T14:49:56;7.80;64.90
39493;DHT22;25176;51.060;3.720;2023-03-01T14:52:28;7.70;65.30
39493;DHT22;25176;51.060;3.720;2023-03-01T14:54:56;7.80;65.50
39493;DHT22;25176;51.060;3.720;2023-03-01T14:57:24;7.70;65.10
39493;DHT22;25176;51.060;3.720;2023-03-01T14:59:53;7.80;65.10
39493;DHT22;25176;51.060;3.720;2023-03-01T15:02:22;7.70;64.60
39493;DHT22;25176;51.060;3.720;2023-03-01T15:04:57;7.70;65.10
39493;DHT22;25176;51.060;3.720;2023-03-01T15:07:37;7.60;64.90
39493;DHT22;25176;51.060;3.720;2023-03-01T15:10:06;7.50;65.00
39493;DHT22;25176;51.060;3.720;2023-03-01T15:12:35;7.40;65.50
39493;DHT22;25176;51.060;3.720;2023-03-01T15:15:06;7.40;65.80
39493;DHT22;25176;51.060;3.720;2023-03-01T15:17:44;7.40;66.00
39493;DHT22;25176;51.060;3.720;2023-03-01T15:20:18;7.50;65.90
39493;DHT22;25176;51.060;3.720;2023-03-01T15:22:47;7.50;65.90
39493;DHT22;25176;51.060;3.720;2023-03-01T15:25:22;7.50;65.90
39493;DHT22;25176;51.060;3.720;2023-03-01T15:27:50;7.60;65.20
39493;DHT22;25176;51.060;3.720;2023-03-01T15:32:44;7.60;65.20
39493;DHT22;25176;51.060;3.720;2023-03-01T15:35:40;7.50;65.10
39493;DHT22;25176;51.060;3.720;2023-03-01T15:40:56;7.50;65.30
39493;DHT22;25176;51.060;3.720;2023-03-01T15:43:43;7.50;65.00
39493;DHT22;25176;51.060;3.720;2023-03-01T15:46:33;7.60;65.00
39493;DHT22;25176;51.060;3.720;2023-03-01T15:49:02;7.40;64.80
39493;DHT22;25176;51.060;3.720;2023-03-01T15:51:37;7.50;65.50
39493;DHT22;25176;51.060;3.720;2023-03-01T15:54:20;7.50;65.40
39493;DHT22;25176;51.060;3.720;2023-03-01T15:56:46;7.50;65.50
39493;DHT22;25176;51.060;3.720;2023-03-01T15:59:12;7.40;65.40
39493;DHT22;25176;51.060;3.720;2023-03-01T16:01:42;7.50;65.50
39493;DHT22;25176;51.060;3.720;2023-03-01T16:04:10;7.40;65.80
39493;DHT22;25176;51.060;3.720;2023-03-01T16:06:38;7.50;65.70
39493;DHT22;25176;51.060;3.720;2023-03-01T16:09:04;7.40;65.80
39493;DHT22;25176;51.060;3.720;2023-03-01T16:11:30;7.40;65.60
39493;DHT22;25176;51.060;3.720;2023-03-01T16:13:57;7.50;65.90
39493;DHT22;25176;51.060;3.720;2023-03-01T16:16:23;7.40;65.80
39493;DHT22;25176;51.060;3.720;2023-03-01T16:18:48;7.50;65.80
39493;DHT22;25176;51.060;3.720;2023-03-01T16:21:24;7.50;65.80
39493;DHT22;25176;51.060;3.720;2023-03-01T16:23:50;7.50;65.50
39493;DHT22;25176;51.060;3.720;2023-03-01T16:26:16;7.50;65.60
39493;DHT22;25176;51.060;3.720;2023-03-01T16:28:44;7.40;65.80
39493;DHT22;25176;51.060;3.720;2023-03-01T16:31:10;7.40;66.00
39493;DHT22;25176;51.060;3.720;2023-03-01T16:33:36;7.30;66.00
39493;DHT22;25176;51.060;3.720;2023-03-01T16:36:10;7.30;65.90
39493;DHT22;25176;51.060;3.720;2023-03-01T16:38:37;7.40;66.50
39493;DHT22;25176;51.060;3.720;2023-03-01T16:41:02;7.40;66.50
39493;DHT22;25176;51.060;3.720;2023-03-01T16:43:29;7.40;66.50
39493;DHT22;25176;51.060;3.720;2023-03-01T16:45:55;7.30;66.30
39493;DHT22;25176;51.060;3.720;2023-03-01T16:48:21;7.20;66.20
39493;DHT22;25176;51.060;3.720;2023-03-01T16:50:56;7.10;66.40
39493;DHT22;25176;51.060;3.720;2023-03-01T16:53:22;7.10;66.30
39493;DHT22;25176;51.060;3.720;2023-03-01T16:55:56;7.00;67.10
39493;DHT22;25176;51.060;3.720;2023-03-01T16:58:22;7.10;67.40
39493;DHT22;25176;51.060;3.720;2023-03-01T17:00:53;7.10;66.60
39493;DHT22;25176;51.060;3.720;2023-03-01T17:03:25;7.10;66.30
39493;DHT22;25176;51.060;3.720;2023-03-01T17:05:51;7.10;66.50
39493;DHT22;25176;51.060;3.720;2023-03-01T17:08:17;7.10;66.60
39493;DHT22;25176;51.060;3.720;2023-03-01T17:10:43;7.10;66.50
39493;DHT22;25176;51.060;3.720;2023-03-01T17:13:09;7.00;66.40
39493;DHT22;25176;51.060;3.720;2023-03-01T17:15:38;7.00;66.40
39493;DHT22;25176;51.060;3.720;2023-03-01T17:18:05;6.90;66.40
39493;DHT22;25176;51.060;3.720;2023-03-01T17:20:31;6.80;66.50
39493;DHT22;25176;51.060;3.720;2023-03-01T17:22:56;6.90;66.60
39493;DHT22;25176;51.060;3.720;2023-03-01T17:25:23;6.80;66.30
39493;DHT22;25176;51.060;3.720;2023-03-01T17:27:48;6.80;66.40
39493;DHT22;25176;51.060;3.720;2023-03-01T17:30:14;6.70;66.60
39493;DHT22;25176;51.060;3.720;2023-03-01T17:32:41;6.70;66.60
39493;DHT22;25176;51.060;3.720;2023-03-01T17:35:07;6.70;66.40
39493;DHT22;25176;51.060;3.720;2023-03-01T17:37:33;6.70;66.20
39493;DHT22;25176;51.060;3.720;2023-03-01T17:39:58;6.70;66.60
39493;DHT22;25176;51.060;3.720;2023-03-01T17:42:24;6.60;66.50
39493;DHT22;25176;51.060;3.720;2023-03-01T17:44:50;6.50;66.90
39493;DHT22;25176;51.060;3.720;2023-03-01T17:47:15;6.50;66.80
39493;DHT22;25176;51.060;3.720;2023-03-01T17:49:41;6.50;67.00
39493;DHT22;25176;51.060;3.720;2023-03-01T17:52:07;6.50;67.00
39493;DHT22;25176;51.060;3.720;2023-03-01T17:54:32;6.50;67.10
39493;DHT22;25176;51.060;3.720;2023-03-01T17:56:58;6.40;67.20
39493;DHT22;25176;51.060;3.720;2023-03-01T17:59:24;6.40;67.20
39493;DHT22;25176;51.060;3.720;2023-03-01T18:01:56;6.30;67.60
39493;DHT22;25176;51.060;3.720;2023-03-01T18:04:21;6.30;67.60
39493;DHT22;25176;51.060;3.720;2023-03-01T18:06:47;6.30;67.70
39493;DHT22;25176;51.060;3.720;2023-03-01T18:09:12;6.20;68.00
39493;DHT22;25176;51.060;3.720;2023-03-01T18:11:39;6.20;67.70
39493;DHT22;25176;51.060;3.720;2023-03-01T18:14:06;6.20;67.70
39493;DHT22;25176;51.060;3.720;2023-03-01T18:16:31;6.10;68.00
39493;DHT22;25176;51.060;3.720;2023-03-01T18:18:59;6.10;68.00
39493;DHT22;25176;51.060;3.720;2023-03-01T18:21:26;6.20;68.00
39493;DHT22;25176;51.060;3.720;2023-03-01T18:23:52;6.10;67.90
39493;DHT22;25176;51.060;3.720;2023-03-01T18:26:18;6.10;68.10
39493;DHT22;25176;51.060;3.720;2023-03-01T18:28:48;6.00;68.10
39493;DHT22;25176;51.060;3.720;2023-03-01T18:31:16;6.00;68.20
39493;DHT22;25176;51.060;3.720;2023-03-01T18:33:44;6.00;68.40
39493;DHT22;25176;51.060;3.720;2023-03-01T18:36:19;6.00;68.40
39493;DHT22;25176;51.060;3.720;2023-03-01T18:38:45;6.00;68.50
39493;DHT22;25176;51.060;3.720;2023-03-01T18:41:11;6.00;68.50
39493;DHT22;25176;51.060;3.720;2023-03-01T18:43:37;5.90;68.40
39493;DHT22;25176;51.060;3.720;2023-03-01T18:46:19;5.80;68.70
39493;DHT22;25176;51.060;3.720;2023-03-01T18:48:54;5.90;68.90
39493;DHT22;25176;51.060;3.720;2023-03-01T18:51:23;5.80;69.00
39493;DHT22;25176;51.060;3.720;2023-03-01T18:53:55;5.70;69.00
39493;DHT22;25176;51.060;3.720;2023-03-01T18:56:24;5.80;69.20
39493;DHT22;25176;51.060;3.720;2023-03-01T18:58:50;5.60;69.00
39493;DHT22;25176;51.060;3.720;2023-03-01T19:01:20;5.80;69.20
39493;DHT22;25176;51.060;3.720;2023-03-01T19:03:47;5.70;69.40
39493;DHT22;25176;51.060;3.720;2023-03-01T19:06:13;5.70;69.40
39493;DHT22;25176;51.060;3.720;2023-03-01T19:08:39;5.70;69.90
39493;DHT22;25176;51.060;3.720;2023-03-01T19:11:07;5.70;69.70
39493;DHT22;25176;51.060;3.720;2023-03-01T19:13:34;5.80;69.80
39493;DHT22;25176;51.060;3.720;2023-03-01T19:16:04;5.80;69.70
39493;DHT22;25176;51.060;3.720;2023-03-01T19:18:30;5.70;69.50
39493;DHT22;25176;51.060;3.720;2023-03-01T19:21:00;5.70;70.00
39493;DHT22;25176;51.060;3.720;2023-03-01T19:23:27;5.60;69.50
39493;DHT22;25176;51.060;3.720;2023-03-01T19:26:00;5.50;69.80
39493;DHT22;25176;51.060;3.720;2023-03-01T19:28:27;5.60;70.20
39493;DHT22;25176;51.060;3.720;2023-03-01T19:30:59;5.60;70.10
39493;DHT22;25176;51.060;3.720;2023-03-01T19:33:26;5.50;70.30
39493;DHT22;25176;51.060;3.720;2023-03-01T19:35:52;5.50;69.90
39493;DHT22;25176;51.060;3.720;2023-03-01T19:38:17;5.50;70.10
39493;DHT22;25176;51.060;3.720;2023-03-01T19:40:43;5.40;70.50
39493;DHT22;25176;51.060;3.720;2023-03-01T19:43:08;5.40;70.40
39493;DHT22;25176;51.060;3.720;2023-03-01T19:45:34;5.40;70.70
39493;DHT22;25176;51.060;3.720;2023-03-01T19:47:59;5.40;70.80
39493;DHT22;25176;51.060;3.720;2023-03-01T19:50:25;5.40;70.90
39493;DHT22;25176;51.060;3.720;2023-03-01T19:52:51;5.40;70.80
39493;DHT22;25176;51.060;3.720;2023-03-01T19:55:17;5.40;70.70
39493;DHT22;25176;51.060;3.720;2023-03-01T19:57:42;5.40;70.90
39493;DHT22;25176;51.060;3.720;2023-03-01T20:00:08;5.40;70.80
39493;DHT22;25176;51.060;3.720;2023-03-01T20:02:34;5.40;70.80
39493;DHT22;25176;51.060;3.720;2023-03-01T20:04:59;5.40;70.80
39493;DHT22;25176;51.060;3.720;2023-03-01T20:07:25;5.40;70.80
39493;DHT22;25176;51.060;3.720;2023-03-01T20:09:51;5.40;71.00
39493;DHT22;25176;51.060;3.720;2023-03-01T20:12:16;5.40;71.00
39493;DHT22;25176;51.060;3.720;2023-03-01T20:14:44;5.30;71.20
39493;DHT22;25176;51.060;3.720;2023-03-01T20:17:10;5.30;71.20
39493;DHT22;25176;51.060;3.720;2023-03-01T20:19:36;5.40;71.10
39493;DHT22;25176;51.060;3.720;2023-03-01T20:22:01;5.30;71.20
39493;DHT22;25176;51.060;3.720;2023-03-01T20:24:28;5.40;71.20
39493;DHT22;25176;51.060;3.720;2023-03-01T20:26:59;5.40;71.20
39493;DHT22;25176;51.060;3.720;2023-03-01T20:29:25;5.30;71.20
39493;DHT22;25176;51.060;3.720;2023-03-01T20:31:51;5.30;71.80
39493;DHT22;25176;51.060;3.720;2023-03-01T20:34:16;5.30;71.30
39493;DHT22;25176;51.060;3.720;2023-03-01T20:36:42;5.30;70.90
39493;DHT22;25176;51.060;3.720;2023-03-01T20:39:09;5.20;71.10
39493;DHT22;25176;51.060;3.720;2023-03-01T20:41:36;5.20;71.30
39493;DHT22;25176;51.060;3.720;2023-03-01T20:44:02;5.20;71.30
39493;DHT22;25176;51.060;3.720;2023-03-01T20:46:31;5.20;71.50
39493;DHT22;25176;51.060;3.720;2023-03-01T20:48:57;5.20;71.50
39493;DHT22;25176;51.060;3.720;2023-03-01T20:51:24;5.10;71.50
39493;DHT22;25176;51.060;3.720;2023-03-01T20:53:50;5.10;71.60
39493;DHT22;25176;51.060;3.720;2023-03-01T20:56:17;5.10;71.70
39493;DHT22;25176;51.060;3.720;2023-03-01T20:58:43;5.10;71.50
39493;DHT22;25176;51.060;3.720;2023-03-01T21:01:12;5.10;71.60
39493;DHT22;25176;51.060;3.720;2023-03-01T21:03:38;5.10;71.80
39493;DHT22;25176;51.060;3.720;2023-03-01T21:06:04;5.00;71.90
39493;DHT22;25176;51.060;3.720;2023-03-01T21:08:30;5.00;72.00
